Station Historical Data
 
Daily Summary for March 22, 2019 Units:  Metric    English   Both
« Previous Day
Next Day »
Daily Weekly Monthly Yearly Custom
  Current: High: Low: Average:
Temperature: -9.4 °C -17.8 °C -15.2 °C -11.3 °C
Dew Point: -17.1 °C -17.8 °C -17.7 °C -16.9 °C
Humidity: 39 % Humidity % 29 % 54 %
Wind Speed: 6 km/h 0 km/h 0 km/h 8.5 km/h
Wind Gust: 4.7 km/h 0 km/h - -
Wind:SSE - - SSW
Pressure: 34737 hPa 0 hPa 34720 hPa -
Precipitation: 0 mm      
Historical Graphs
 
 
Tabular Data for March 22, 2019
Time Temperature Dew Point Pressure Wind Wind Speed Wind Gust Humidity Rainfall Rate (Hourly) solar Conditions
-17.8 °C -17.8 °C 0 hPa Calm     Humidity % 0 mm SolarRadiationWatts/m^2 W/m2 Conditions
00:03 -13.6 °C -16.8 °C 34886 hPa SE 6 km/h 4.3 km/h 67 % 0 mm 0.00 W/m2 FEW
00:09 -13.6 °C -16.9 °C 34886 hPa SE 6 km/h 3.9 km/h 66 % 0 mm 0.00 W/m2 FEW
00:14 -13.6 °C -16.9 °C 34882.6 hPa SE 7.7 km/h 5.1 km/h 66 % 0 mm 0.00 W/m2 FEW
00:18 -13.7 °C -16.9 °C 34882.6 hPa SE 6 km/h 3.9 km/h 66 % 0 mm 0.00 W/m2 FEW
00:24 -13.7 °C -16.9 °C 34882.6 hPa SE 6 km/h 4.7 km/h 66 % 0 mm 0.00 W/m2 FEW
00:29 -13.7 °C -17 °C 34882.6 hPa SE 6 km/h 4.7 km/h 66 % 0 mm 0.00 W/m2 FEW
00:33 -13.7 °C -16.9 °C 34886 hPa SE 9 km/h 5.5 km/h 67 % 0 mm 0.00 W/m2 FEW
00:39 -13.7 °C -16.7 °C 34886 hPa SE 6 km/h 3.9 km/h 69 % 0 mm 0.00 W/m2 FEW
00:44 -13.8 °C -16.6 °C 34882.6 hPa SE 9 km/h 4.7 km/h 70 % 0 mm 0.00 W/m2 FEW
00:48 -13.8 °C -16.7 °C 34882.6 hPa SE 6 km/h 3.9 km/h 70 % 0 mm 0.00 W/m2 FEW
00:54 -13.9 °C -16.8 °C 34886 hPa SE 9 km/h 5.6 km/h 69 % 0 mm 0.00 W/m2 FEW
00:59 -13.9 °C -16.9 °C 34882.6 hPa SE 6 km/h 5.1 km/h 69 % 0 mm 0.00 W/m2 FEW
01:02 -14 °C -16.9 °C 34882.6 hPa SE 6 km/h 3.1 km/h 69 % 0 mm 0.00 W/m2 FEW
01:08 -14 °C -16.9 °C 34886 hPa SE 6 km/h 4.3 km/h 69 % 0 mm 0.00 W/m2 FEW
01:13 -14 °C -16.9 °C 34882.6 hPa SE 3.1 km/h 0.8 km/h 69 % 0 mm 0.00 W/m2 FEW
01:19 -14 °C -16.9 °C 34882.6 hPa SE 6 km/h 2.6 km/h 69 % 0 mm 0.00 W/m2 FEW
01:23 -14.1 °C -17 °C 34882.6 hPa SE 6 km/h 3.9 km/h 69 % 0 mm 0.00 W/m2 FEW
01:28 -14.1 °C -16.9 °C 34882.6 hPa SE 6 km/h 2.6 km/h 70 % 0 mm 0.00 W/m2 FEW
01:34 -14.1 °C -17 °C 34882.6 hPa SE 6 km/h 3.9 km/h 69 % 0 mm 0.00 W/m2 FEW
01:38 -14.1 °C -17 °C 34879.2 hPa SE 6 km/h 2.6 km/h 70 % 0 mm 0.00 W/m2 FEW
01:43 -14.2 °C -17.1 °C 34882.6 hPa SE 7.7 km/h 5.1 km/h 69 % 0 mm 0.00 W/m2 FEW
01:49 -14.2 °C -17.1 °C 34882.6 hPa SE 9 km/h 5.1 km/h 69 % 0 mm 0.00 W/m2 FEW
01:53 -14.3 °C -17.1 °C 34879.2 hPa SE 6 km/h 3.7 km/h 70 % 0 mm 0.00 W/m2 FEW
01:58 -14.3 °C -17.1 °C 34879.2 hPa SE 6 km/h 2.6 km/h 70 % 0 mm 0.00 W/m2 FEW
02:04 -14.3 °C -17.1 °C 34879.2 hPa SE 6 km/h 2.9 km/h 71 % 0 mm 0.00 W/m2 FEW
02:08 -14.3 °C -17.1 °C 34875.8 hPa SE 3.1 km/h 0.8 km/h 71 % 0 mm 0.00 W/m2 FEW
02:13 -14.4 °C -17.1 °C 34875.8 hPa Calm     71 % 0 mm 0.00 W/m2 FEW
02:19 -14.4 °C -17.2 °C 34875.8 hPa Calm     71 % 0 mm 0.00 W/m2 FEW
02:23 -14.5 °C -17.1 °C 34879.2 hPa Calm     72 % 0 mm 0.00 W/m2 FEW
02:28 -14.5 °C -17.1 °C 34875.8 hPa Calm     72 % 0 mm 0.00 W/m2 FEW
02:34 -14.6 °C -17.1 °C 34875.8 hPa Calm     72 % 0 mm 0.00 W/m2 FEW
02:39 -14.6 °C -17.1 °C 34875.8 hPa Calm     73 % 0 mm 0.00 W/m2 FEW
02:43 -14.6 °C -17.1 °C 34872.4 hPa Calm     73 % 0 mm 0.00 W/m2 FEW
02:49 -14.6 °C -17.1 °C 34869 hPa Calm     73 % 0 mm 0.00 W/m2 FEW
02:54 -14.6 °C -17.1 °C 34865.6 hPa Calm     73 % 0 mm 0.00 W/m2 FEW
02:58 -14.6 °C -17.1 °C 34865.6 hPa Calm     73 % 0 mm 0.00 W/m2 FEW
03:04 -14.6 °C -17.1 °C 34865.6 hPa Calm     73 % 0 mm 0.00 W/m2 FEW
03:09 -14.6 °C -17.1 °C 34865.6 hPa Calm     73 % 0 mm 0.00 W/m2 FEW
03:13 -14.6 °C -17.1 °C 34865.6 hPa Calm     73 % 0 mm 0.00 W/m2 FEW
03:19 -14.6 °C -17.1 °C 34862.3 hPa Calm     73 % 0 mm 0.00 W/m2 FEW
03:24 -14.6 °C -17.1 °C 34862.3 hPa Calm     73 % 0 mm 0.00 W/m2 FEW
03:29 -14.6 °C -17.1 °C 34865.6 hPa SE 9 km/h 5.5 km/h 73 % 0 mm 0.00 W/m2 FEW
03:33 -14.6 °C -17.1 °C 34862.3 hPa SE 9 km/h 5.1 km/h 73 % 0 mm 0.00 W/m2 FEW
03:38 -14.6 °C -17.1 °C 34858.9 hPa SE 9 km/h 6.4 km/h 73 % 0 mm 0.00 W/m2 FEW
03:44 -14.6 °C -17.1 °C 34858.9 hPa SE 9 km/h 5.6 km/h 73 % 0 mm 0.00 W/m2 FEW
03:48 -14.6 °C -17.1 °C 34858.9 hPa SE 9 km/h 5.6 km/h 72 % 0 mm 0.00 W/m2 FEW
03:53 -14.6 °C -17.1 °C 34858.9 hPa SE 9 km/h 4.7 km/h 72 % 0 mm 0.00 W/m2 FEW
03:59 -14.5 °C -17.1 °C 34862.3 hPa SE 9 km/h 5.6 km/h 72 % 0 mm 0.00 W/m2 FEW
04:03 -14.5 °C -17.1 °C 34858.9 hPa SE 6 km/h 2.9 km/h 72 % 0 mm 0.00 W/m2 FEW
04:08 -14.5 °C -17.1 °C 34858.9 hPa SE 9 km/h 5.1 km/h 72 % 0 mm 0.00 W/m2 FEW
04:14 -14.5 °C -17.1 °C 34858.9 hPa SE 6 km/h 3.9 km/h 72 % 0 mm 0.00 W/m2 FEW
04:18 -14.5 °C -17.1 °C 34858.9 hPa SE 6 km/h 3.4 km/h 72 % 0 mm 0.00 W/m2 FEW
04:23 -14.5 °C -17 °C 34862.3 hPa SE 6 km/h 4.3 km/h 73 % 0 mm 0.00 W/m2 FEW
04:29 -14.6 °C -16.9 °C 34858.9 hPa SE 3.1 km/h 1 km/h 74 % 0 mm 0.00 W/m2 FEW
04:33 -14.6 °C -16.9 °C 34862.3 hPa Calm     74 % 0 mm 0.00 W/m2 FEW
04:38 -14.6 °C -17 °C 34858.9 hPa Calm     74 % 0 mm 0.00 W/m2 FEW
04:44 -14.7 °C -17.1 °C 34858.9 hPa Calm     74 % 0 mm 0.00 W/m2 FEW
04:48 -14.7 °C -17.1 °C 34862.3 hPa Calm     74 % 0 mm 0.00 W/m2 FEW
04:53 -14.8 °C -17.1 °C 34858.9 hPa SE 6 km/h 2.9 km/h 75 % 0 mm 0.00 W/m2 FEW
04:59 -14.8 °C -17.1 °C 34858.9 hPa SE 6 km/h 3.4 km/h 75 % 0 mm 0.00 W/m2 FEW
05:03 -14.8 °C -17 °C 34858.9 hPa SE 5.1 km/h 2.6 km/h 76 % 0 mm 0.00 W/m2 FEW
05:08 -14.9 °C -17.1 °C 34858.9 hPa SE 6 km/h 3.9 km/h 76 % 0 mm 0.00 W/m2 FEW
05:14 -14.9 °C -17.1 °C 34858.9 hPa SE 6 km/h 2.1 km/h 76 % 0 mm 0.00 W/m2 FEW
05:19 -14.9 °C -17.1 °C 34858.9 hPa Calm     76 % 0 mm 0.00 W/m2 FEW
05:23 -14.9 °C -17.1 °C 34862.3 hPa SE 5.1 km/h 2.6 km/h 76 % 0 mm 0.00 W/m2 FEW
05:29 -14.9 °C -17.1 °C 34862.3 hPa SE 6 km/h 2.9 km/h 76 % 0 mm 0.00 W/m2 FEW
05:34 -14.9 °C -17.1 °C 34862.3 hPa SE 5.1 km/h 2.3 km/h 76 % 0 mm 0.00 W/m2 FEW
05:38 -15 °C -17.2 °C 34862.3 hPa SE 6 km/h 4.2 km/h 76 % 0 mm 0.00 W/m2 FEW
05:44 -15.1 °C -17.2 °C 34862.3 hPa SE 6 km/h 1.6 km/h 76 % 0 mm 0.00 W/m2 FEW
05:49 -15.1 °C -17.3 °C 34862.3 hPa SE 6 km/h 2.1 km/h 76 % 0 mm 0.00 W/m2 FEW
05:53 -15.2 °C -17.3 °C 34862.3 hPa Calm     76 % 0 mm 0.00 W/m2 FEW
05:59 -15.2 °C -17.3 °C 34858.9 hPa Calm     77 % 0 mm 0.00 W/m2 FEW
06:04 -15.2 °C -17.3 °C 34858.9 hPa SE 5.1 km/h 2.3 km/h 77 % 0 mm 0.00 W/m2 FEW
06:08 -15.2 °C -17.3 °C 34862.3 hPa SE 6 km/h 3.1 km/h 77 % 0 mm 0.00 W/m2 FEW
06:13 -15.2 °C -17.2 °C 34858.9 hPa SE 6 km/h 4.2 km/h 78 % 0 mm 0.00 W/m2 FEW
06:18 -15.2 °C -17.2 °C 34858.9 hPa NW 10.3 km/h 6.3 km/h 77 % 0 mm 0.00 W/m2 FEW
06:23 -15.2 °C -17.2 °C 34862.3 hPa NW 9 km/h 6.3 km/h 77 % 0 mm 5.00 W/m2 FEW
06:28 -15.1 °C -17.2 °C 34862.3 hPa NW 9 km/h 5.5 km/h 77 % 0 mm 7.00 W/m2 FEW
06:33 -15.1 °C -17.2 °C 34865.6 hPa NW 9 km/h 5.5 km/h 76 % 0 mm 11.00 W/m2 FEW
06:39 -14.9 °C -17.1 °C 34862.3 hPa NW 9 km/h 5.6 km/h 76 % 0 mm 14.00 W/m2 SCT
06:43 -14.9 °C -17.2 °C 34862.3 hPa NW 9 km/h 5 km/h 75 % 0 mm 18.00 W/m2 SCT
06:48 -14.9 °C -17.1 °C 34865.6 hPa NW 6 km/h 4.3 km/h 75 % 0 mm 23.00 W/m2 SCT
06:54 -14.8 °C -17.1 °C 34865.6 hPa NW 6 km/h 3.1 km/h 75 % 0 mm 30.00 W/m2 SCT
06:58 -14.8 °C -17.1 °C 34869 hPa NW 6 km/h 2.9 km/h 75 % 0 mm 35.00 W/m2 SCT
07:03 -14.8 °C -17.1 °C 34869 hPa NW 6 km/h 4.2 km/h 75 % 0 mm 47.00 W/m2 SCT
07:09 -14.7 °C -17.1 °C 34872.4 hPa NW 7.7 km/h 4.3 km/h 74 % 0 mm 56.00 W/m2 SCT
07:13 -14.7 °C -17.1 °C 34872.4 hPa NW 7.7 km/h 4.3 km/h 74 % 0 mm 65.00 W/m2 SCT
07:18 -14.5 °C -17 °C 34872.4 hPa NW 6 km/h 3.7 km/h 73 % 0 mm 76.00 W/m2 SCT
07:24 -14.3 °C -17.1 °C 34875.8 hPa NW 9 km/h 5 km/h 71 % 0 mm 91.00 W/m2 SCT
07:28 -14.2 °C -17.1 °C 34879.2 hPa NW 6 km/h 4.3 km/h 70 % 0 mm 105.00 W/m2 SCT
07:33 -14.2 °C -17 °C 34882.6 hPa NW 7.7 km/h 5.5 km/h 70 % 0 mm 127.00 W/m2 FEW
07:39 -14.2 °C -17 °C 34882.6 hPa NW 9 km/h 5 km/h 70 % 0 mm 144.00 W/m2 FEW
07:43 -14.1 °C -16.9 °C 34882.6 hPa NW 9 km/h 5.6 km/h 70 % 0 mm 156.00 W/m2 FEW
07:48 -13.9 °C -16.8 °C 34882.6 hPa NW 9 km/h 4.2 km/h 69 % 0 mm 169.00 W/m2 FEW
07:54 -13.7 °C -16.8 °C 34882.6 hPa NW 6 km/h 1.6 km/h 68 % 0 mm 185.00 W/m2 FEW
07:59 -13.8 °C -16.7 °C 34882.6 hPa WSW 10.3 km/h 8.2 km/h 69 % 0 mm 197.00 W/m2 FEW
08:03 -13.9 °C -16.8 °C 34882.6 hPa SW 9 km/h 7.6 km/h 70 % 0 mm 193.00 W/m2 FEW
08:09 -13.9 °C -16.6 °C 34886 hPa SW 10.3 km/h 6.4 km/h 71 % 0 mm 190.00 W/m2 FEW
08:14 -13.8 °C -16.6 °C 34882.6 hPa SW 12.9 km/h 9.3 km/h 71 % 0 mm 211.00 W/m2 FEW
08:18 -13.8 °C -16.6 °C 34886 hPa WSW 12.9 km/h 8.2 km/h 71 % 0 mm 241.00 W/m2 FEW
08:24 -13.8 °C -16.6 °C 34886 hPa WSW 15.6 km/h 11.9 km/h 70 % 0 mm 267.00 W/m2 FEW
08:29 -13.7 °C -16.6 °C 34886 hPa WSW 18.2 km/h 14.8 km/h 70 % 0 mm 283.00 W/m2 CLR
08:33 -13.7 °C -16.6 °C 34882.6 hPa WSW 17.9 km/h 13.5 km/h 70 % 0 mm 294.00 W/m2 CLR
08:38 -13.7 °C -16.4 °C 34882.6 hPa WSW 18.2 km/h 14.8 km/h 71 % 0 mm 306.00 W/m2 CLR
08:43 -13.7 °C -16.4 °C 34882.6 hPa SW 15.6 km/h 8.9 km/h 71 % 0 mm 320.00 W/m2 CLR
08:49 -13.6 °C -16.4 °C 34882.6 hPa WSW 15.6 km/h 12.4 km/h 70 % 0 mm 336.00 W/m2 CLR
08:53 -13.4 °C -16.4 °C 34886 hPa WSW 18.2 km/h 13.7 km/h 69 % 0 mm 346.00 W/m2 CLR
08:58 -13.3 °C -16.2 °C 34886 hPa WSW 12.9 km/h 8.2 km/h 69 % 0 mm 357.00 W/m2 CLR
09:04 -13.2 °C -16.1 °C 34892.7 hPa SW 15.6 km/h 8.9 km/h 70 % 0 mm 362.00 W/m2 CLR
09:08 -13.1 °C -15.9 °C 34889.3 hPa SW 10.3 km/h 8.9 km/h 70 % 0 mm 367.00 W/m2 CLR
09:13 -12.9 °C -15.9 °C 34889.3 hPa WSW 15 km/h 11.9 km/h 69 % 0 mm 371.00 W/m2 CLR
09:19 -12.8 °C -16 °C 34886 hPa WSW 12.9 km/h 7.2 km/h 67 % 0 mm 374.00 W/m2 FEW
09:23 -12.7 °C -15.9 °C 34882.6 hPa WSW 17.9 km/h 12.4 km/h 67 % 0 mm 376.00 W/m2 FEW
09:28 -12.6 °C -15.9 °C 34886 hPa WSW 15 km/h 10.3 km/h 66 % 0 mm 376.00 W/m2 FEW
09:34 -12.4 °C -15.9 °C 34886 hPa SSW 15.6 km/h 11.9 km/h 65 % 0 mm 378.00 W/m2 FEW
09:38 -12.3 °C -15.8 °C 34886 hPa West 15.6 km/h 12.4 km/h 65 % 0 mm 392.00 W/m2 FEW
09:43 -12.1 °C -15.6 °C 34889.3 hPa West 12.9 km/h 8.2 km/h 65 % 0 mm 396.00 W/m2 FEW
09:49 -12 °C -15.6 °C 34892.7 hPa SW 12.9 km/h 6.9 km/h 64 % 0 mm 394.00 W/m2 FEW
09:54 -11.9 °C -15.7 °C 34889.3 hPa WSW 10.3 km/h 3.4 km/h 63 % 0 mm 408.00 W/m2 FEW
09:58 -11.6 °C -15.4 °C 34889.3 hPa SW 7.7 km/h 3.7 km/h 63 % 0 mm 422.00 W/m2 FEW
10:04 -11.4 °C -15.6 °C 34886 hPa West 10.3 km/h 7.2 km/h 60 % 0 mm 445.00 W/m2 FEW
10:09 -11.3 °C -15.5 °C 34886 hPa SW 9 km/h 6.3 km/h 60 % 0 mm 471.00 W/m2 FEW
10:13 -11.3 °C -15.8 °C 34882.6 hPa WSW 10.3 km/h 4.3 km/h 57 % 0 mm 494.00 W/m2 FEW
10:19 -11.1 °C -15.6 °C 34886 hPa South 10.3 km/h 6 km/h 58 % 0 mm 519.00 W/m2 FEW
10:24 -10.9 °C -15.5 °C 34882.6 hPa SW 7.7 km/h 4.3 km/h 57 % 0 mm 548.00 W/m2 CLR
10:28 -10.8 °C -15.6 °C 34882.6 hPa SW 11.9 km/h 6.9 km/h 56 % 0 mm 568.00 W/m2 CLR
10:34 -10.7 °C -15.5 °C 34882.6 hPa SW 12.9 km/h 9.8 km/h 56 % 0 mm 587.00 W/m2 CLR
10:39 -10.6 °C -15.7 °C 34879.2 hPa NW 9 km/h 4.7 km/h 54 % 0 mm 594.00 W/m2 CLR
10:43 -10.4 °C -15.8 °C 34879.2 hPa WNW 12.9 km/h 9 km/h 52 % 0 mm 603.00 W/m2 CLR
10:49 -10.3 °C -15.9 °C 34875.8 hPa West 9 km/h 3.9 km/h 51 % 0 mm 613.00 W/m2 CLR
10:54 -10.2 °C -15.8 °C 34872.4 hPa SW 15 km/h 9.8 km/h 51 % 0 mm 626.00 W/m2 CLR
10:59 -9.9 °C -15.8 °C 34875.8 hPa WNW 12.9 km/h 11.1 km/h 49 % 0 mm 633.00 W/m2 CLR
11:04 -10.1 °C -16.2 °C 34872.4 hPa WSW 18.2 km/h 11.4 km/h 47 % 0 mm 640.00 W/m2 CLR
11:09 -10.1 °C -16 °C 34872.4 hPa WSW 10.3 km/h 8 km/h 49 % 0 mm 647.00 W/m2 CLR
11:13 -9.8 °C -15.9 °C 34869 hPa SW 15.6 km/h 11.1 km/h 48 % 0 mm 652.00 W/m2 CLR
11:18 -9.8 °C -16.6 °C 34869 hPa WSW 20.9 km/h 16.6 km/h 44 % 0 mm 661.00 W/m2 CLR
11:23 -9.8 °C -16.1 °C 34869 hPa SW 15.6 km/h 7.6 km/h 47 % 0 mm 666.00 W/m2 CLR
11:28 -9.7 °C -16.3 °C 34865.6 hPa SW 11.9 km/h 8.9 km/h 45 % 0 mm 673.00 W/m2 CLR
11:33 -9.6 °C -16.6 °C 34865.6 hPa West 18.2 km/h 12.2 km/h 43 % 0 mm 675.00 W/m2 CLR
11:38 -9.6 °C -16.5 °C 34862.3 hPa WSW 9 km/h 5.1 km/h 43 % 0 mm 682.00 W/m2 CLR
11:43 -9.5 °C -16.3 °C 34858.9 hPa SW 12.9 km/h 9 km/h 44 % 0 mm 691.00 W/m2 CLR
11:48 -9.3 °C -16.1 °C 34858.9 hPa South 10.3 km/h 5.5 km/h 44 % 0 mm 698.00 W/m2 CLR
11:53 -9.3 °C -16.2 °C 34855.5 hPa NW 15.6 km/h 11.4 km/h 43 % 0 mm 694.00 W/m2 CLR
11:58 -9.2 °C -16 °C 34855.5 hPa WNW 12.9 km/h 8.9 km/h 44 % 0 mm 698.00 W/m2 CLR
12:04 -9.1 °C -16.4 °C 34852.1 hPa NW 3.1 km/h 1 km/h 41 % 0 mm 691.00 W/m2 CLR
12:08 -8.9 °C -16.5 °C 34852.1 hPa NNW 9 km/h 4.7 km/h 40 % 0 mm 689.00 W/m2 CLR
12:13 -8.8 °C -16.8 °C 34848.7 hPa WSW 15.6 km/h 9 km/h 38 % 0 mm 710.00 W/m2 CLR
12:19 -8.8 °C -16.8 °C 34845.3 hPa North 6 km/h 3.1 km/h 38 % 0 mm 701.00 W/m2 CLR
12:23 -8.8 °C -16.7 °C 34841.9 hPa SW 10.3 km/h 8.2 km/h 38 % 0 mm 679.00 W/m2 CLR
12:28 -8.7 °C -17.1 °C 34841.9 hPa SSW 9 km/h 4.3 km/h 36 % 0 mm 642.00 W/m2 CLR
12:34 -8.7 °C -17.1 °C 34838.6 hPa SW 10.3 km/h 6 km/h 36 % 0 mm 589.00 W/m2 CLR
12:38 -8.6 °C -17.2 °C 34838.6 hPa SW 6 km/h 3.7 km/h 35 % 0 mm 566.00 W/m2 FEW
12:43 -8.4 °C -16.8 °C 34835.2 hPa West 15.6 km/h 11.9 km/h 36 % 0 mm 578.00 W/m2 FEW
12:49 -8.2 °C -17.1 °C 34831.8 hPa SW 9 km/h 5.6 km/h 34 % 0 mm 626.00 W/m2 FEW
12:53 -8.3 °C -17.7 °C 34831.8 hPa SE 9 km/h 5.5 km/h 32 % 0 mm 675.00 W/m2 CLR
12:59 -8.2 °C -16.9 °C 34831.8 hPa South 9 km/h 2.6 km/h 35 % 0 mm 705.00 W/m2 CLR
13:04 -8.1 °C -17 °C 34825 hPa South 9 km/h 5.1 km/h 34 % 0 mm 714.00 W/m2 CLR
13:09 -8.1 °C -16.8 °C 34821.6 hPa West 12.9 km/h 9.8 km/h 35 % 0 mm 710.00 W/m2 CLR
13:14 -8.1 °C -16.8 °C 34821.6 hPa West 9 km/h 6.8 km/h 35 % 0 mm 707.00 W/m2 CLR
13:19 -7.9 °C -16.8 °C 34818.2 hPa SSW 11.9 km/h 3.7 km/h 34 % 0 mm 707.00 W/m2 CLR
13:24 -7.9 °C -17.1 °C 34818.2 hPa ESE 15.6 km/h 10.6 km/h 33 % 0 mm 701.00 W/m2 CLR
13:29 -8.1 °C -17.1 °C 34814.9 hPa South 15.6 km/h 8.2 km/h 34 % 0 mm 700.00 W/m2 CLR
13:34 -8.2 °C -17.1 °C 34808.1 hPa SE 6 km/h 3.7 km/h 34 % 0 mm 696.00 W/m2 CLR
13:39 -8 °C -16.9 °C 34804.7 hPa SE 7.7 km/h 4.3 km/h 34 % 0 mm 693.00 W/m2 CLR
13:43 -7.9 °C -16.8 °C 34801.3 hPa NNW 10.3 km/h 6.9 km/h 34 % 0 mm 689.00 W/m2 CLR
13:48 -7.9 °C -16.9 °C 34797.9 hPa NW 12.9 km/h 9.8 km/h 34 % 0 mm 680.00 W/m2 CLR
13:53 -7.8 °C -16.8 °C 34797.9 hPa SW 7.7 km/h 3.4 km/h 34 % 0 mm 677.00 W/m2 CLR
13:59 -7.6 °C -16.8 °C 34791.2 hPa WSW 10.3 km/h 6.8 km/h 33 % 0 mm 671.00 W/m2 CLR
14:03 -7.6 °C -16.8 °C 34794.5 hPa South 12.9 km/h 6.8 km/h 33 % 0 mm 661.00 W/m2 CLR
14:08 -7.7 °C -16.6 °C 34791.2 hPa SW 10.3 km/h 5.1 km/h 34 % 0 mm 663.00 W/m2 CLR
14:14 -7.6 °C -16.8 °C 34784.4 hPa West 12.9 km/h 6.4 km/h 33 % 0 mm 657.00 W/m2 CLR
14:18 -7.4 °C -16.9 °C 34781 hPa WSW 10.3 km/h 9.3 km/h 32 % 0 mm 649.00 W/m2 CLR
14:23 -7.5 °C -16.9 °C 34781 hPa WSW 11.9 km/h 2.6 km/h 32 % 0 mm 638.00 W/m2 CLR
14:29 -7.3 °C -16.3 °C 34781 hPa NNW 12.9 km/h 9 km/h 34 % 0 mm 628.00 W/m2 CLR
14:33 -7.4 °C -16.7 °C 34781 hPa NW 10.3 km/h 5.6 km/h 33 % 0 mm 619.00 W/m2 CLR
14:38 -7.6 °C -17 °C 34774.2 hPa NW 9 km/h 0.8 km/h 32 % 0 mm 610.00 W/m2 CLR
14:44 -7.1 °C -16.6 °C 34774.2 hPa SE 9 km/h 5 km/h 32 % 0 mm 605.00 W/m2 CLR
14:48 -7.1 °C -16.8 °C 34774.2 hPa SSE 9 km/h 3.9 km/h 31 % 0 mm 596.00 W/m2 CLR
14:53 -7.3 °C -17.3 °C 34774.2 hPa SSE 9 km/h 4.7 km/h 30 % 0 mm 584.00 W/m2 CLR
14:59 -7.2 °C -16.9 °C 34770.8 hPa SSE 6 km/h 1.8 km/h 31 % 0 mm 571.00 W/m2 CLR
15:04 -7.3 °C -17.3 °C 34774.2 hPa ESE 12.9 km/h 10.6 km/h 30 % 0 mm 563.00 W/m2 CLR
15:08 -7.4 °C -17.7 °C 34767.4 hPa ESE 10.3 km/h 6 km/h 29 % 0 mm 547.00 W/m2 CLR
15:14 -7.2 °C -17.2 °C 34764.1 hPa ESE 18.2 km/h 10.3 km/h 30 % 0 mm 529.00 W/m2 CLR
15:19 -7.2 °C -17.4 °C 34760.7 hPa ESE 23.8 km/h 13.2 km/h 29 % 0 mm 536.00 W/m2 CLR
15:23 -7.4 °C -17.6 °C 34760.7 hPa ESE 9 km/h 6.9 km/h 29 % 0 mm 520.00 W/m2 CLR
15:29 -7.3 °C -17.6 °C 34757.3 hPa Calm     29 % 0 mm 510.00 W/m2 CLR
15:34 -7.2 °C -17.4 °C 34753.9 hPa East 9 km/h 2.1 km/h 29 % 0 mm 501.00 W/m2 CLR
15:38 -7.1 °C -17.1 °C 34753.9 hPa ESE 23.3 km/h 15 km/h 30 % 0 mm 487.00 W/m2 CLR
15:44 -7.3 °C -17.6 °C 34747.1 hPa ESE 10.3 km/h 5.6 km/h 29 % 0 mm 436.00 W/m2 CLR
15:49 -7.3 °C -17.6 °C 34740.4 hPa ESE 9 km/h 2.1 km/h 29 % 0 mm 464.00 W/m2 CLR
15:54 -7.3 °C -17.5 °C 34743.7 hPa SE 9 km/h 2.9 km/h 29 % 0 mm 429.00 W/m2 CLR
15:59 -7.2 °C -17.4 °C 34737 hPa SSE 9 km/h 6 km/h 29 % 0 mm 424.00 W/m2 CLR
16:03 -7.2 °C -17.4 °C 34737 hPa SE 12.9 km/h 6.3 km/h 29 % 0 mm 420.00 W/m2 CLR
16:08 -7.2 °C -17.2 °C 34737 hPa SE 5.1 km/h 1.6 km/h 30 % 0 mm 388.00 W/m2 CLR
16:13 -7.1 °C -17.4 °C 34737 hPa SE 6 km/h 2.1 km/h 29 % 0 mm 390.00 W/m2 CLR
16:18 -7.1 °C -17.1 °C 34733.6 hPa SE 6 km/h 3.4 km/h 30 % 0 mm 369.00 W/m2 CLR
16:23 -7.1 °C -16.8 °C 34730.2 hPa SE 15 km/h 6 km/h 31 % 0 mm 345.00 W/m2 CLR
16:28 -7.1 °C -17.1 °C 34733.6 hPa South 20.9 km/h 12.7 km/h 30 % 0 mm 341.00 W/m2 CLR
16:33 -7.1 °C -17.1 °C 34737 hPa SSE 15.6 km/h 12.2 km/h 30 % 0 mm 327.00 W/m2 CLR
16:39 -7.2 °C -17.2 °C 34730.2 hPa South 12.9 km/h 5.6 km/h 30 % 0 mm 311.00 W/m2 CLR
16:43 -7.2 °C -17.2 °C 34733.6 hPa South 11.9 km/h 8.2 km/h 30 % 0 mm 299.00 W/m2 CLR
16:48 -7.3 °C -17.3 °C 34730.2 hPa South 12.9 km/h 7.2 km/h 30 % 0 mm 287.00 W/m2 CLR
16:54 -7.3 °C -17.6 °C 34726.8 hPa SSE 9 km/h 5.5 km/h 29 % 0 mm 269.00 W/m2 CLR
16:59 -7.3 °C -17.6 °C 34726.8 hPa SW 9 km/h 4.3 km/h 29 % 0 mm 239.00 W/m2 CLR
17:03 -7.4 °C -17.6 °C 34726.8 hPa SW 12.9 km/h 10.9 km/h 29 % 0 mm 237.00 W/m2 CLR
17:09 -7.4 °C -17.4 °C 34730.2 hPa SSE 12.9 km/h 8.2 km/h 30 % 0 mm 223.00 W/m2 CLR
17:14 -7.4 °C -17.4 °C 34730.2 hPa SW 9 km/h 3.7 km/h 30 % 0 mm 204.00 W/m2 CLR
17:18 -7.4 °C -17.6 °C 34726.8 hPa SSW 9 km/h 5.1 km/h 29 % 0 mm 192.00 W/m2 CLR
17:24 -7.4 °C -17.4 °C 34726.8 hPa South 9 km/h 4.7 km/h 30 % 0 mm 174.00 W/m2 CLR
17:29 -7.4 °C -17.7 °C 34723.4 hPa South 10.3 km/h 6.3 km/h 29 % 0 mm 151.00 W/m2 CLR
17:33 -7.4 °C -17.4 °C 34723.4 hPa SSW 9 km/h 6.8 km/h 30 % 0 mm 116.00 W/m2 CLR
17:39 -7.5 °C -17.4 °C 34723.4 hPa SSW 10.3 km/h 5 km/h 30 % 0 mm 81.00 W/m2 SCT
17:44 -7.6 °C -17.4 °C 34726.8 hPa SSW 12.9 km/h 9.7 km/h 30 % 0 mm 104.00 W/m2 SCT
17:49 -7.6 °C -17.1 °C 34726.8 hPa South 9 km/h 5 km/h 32 % 0 mm 86.00 W/m2 SCT
17:54 -7.7 °C -17.1 °C 34723.4 hPa SSW 6 km/h 2.6 km/h 32 % 0 mm 76.00 W/m2 SCT
17:59 -7.7 °C -16.9 °C 34730.2 hPa South 9 km/h 3.7 km/h 33 % 0 mm 62.00 W/m2 SCT
18:04 -7.8 °C -17 °C 34730.2 hPa South 6 km/h 3.9 km/h 33 % 0 mm 49.00 W/m2 SCT
18:09 -7.8 °C -17 °C 34726.8 hPa South 6 km/h 3.4 km/h 33 % 0 mm 39.00 W/m2 SCT
18:13 -7.9 °C -17.1 °C 34723.4 hPa South 9 km/h 6.8 km/h 33 % 0 mm 32.00 W/m2 SCT
18:18 -8 °C -17.2 °C 34723.4 hPa SSE 9 km/h 6 km/h 33 % 0 mm 18.00 W/m2 SCT
18:23 -8.1 °C -17.2 °C 34723.4 hPa SSE 9 km/h 4.2 km/h 33 % 0 mm 16.00 W/m2 SCT
18:28 -8.2 °C -17.1 °C 34723.4 hPa SSE 3.1 km/h 1.3 km/h 34 % 0 mm 11.00 W/m2 SCT
18:33 -8.2 °C -17.1 °C 34723.4 hPa SSE 6 km/h 2.3 km/h 34 % 0 mm 7.00 W/m2 SCT
18:38 -8.3 °C -17.2 °C 34723.4 hPa SSE 3.1 km/h 1.6 km/h 34 % 0 mm 0.00 W/m2 SCT
18:43 -8.4 °C -17.3 °C 34723.4 hPa SSE 6 km/h 3.1 km/h 34 % 0 mm 0.00 W/m2 SCT
18:48 -8.4 °C -17.3 °C 34720 hPa SSE 3.1 km/h 0.8 km/h 34 % 0 mm 0.00 W/m2 SCT
18:54 -8.5 °C -17.3 °C 34720 hPa SSE 6 km/h 2.6 km/h 34 % 0 mm 0.00 W/m2 SCT
18:58 -8.6 °C -17.4 °C 34720 hPa SSE 6 km/h 2.9 km/h 34 % 0 mm 0.00 W/m2 SCT
19:03 -8.7 °C -17.3 °C 34726.8 hPa SSE 5.1 km/h 2.9 km/h 35 % 0 mm 0.00 W/m2 SCT
19:09 -8.8 °C -17.3 °C 34730.2 hPa SSE 6 km/h 4.2 km/h 36 % 0 mm 0.00 W/m2 SCT
19:13 -8.9 °C -17.3 °C 34730.2 hPa SSE 9 km/h 5.5 km/h 36 % 0 mm 0.00 W/m2 SCT
19:19 -9 °C -17.3 °C 34733.6 hPa SSE 9 km/h 6 km/h 36 % 0 mm 0.00 W/m2 SCT
19:24 -9.1 °C -17.4 °C 34733.6 hPa SE 10.3 km/h 7.7 km/h 36 % 0 mm 0.00 W/m2 SCT
19:28 -9.1 °C -17.1 °C 34737 hPa SSE 9 km/h 6.4 km/h 38 % 0 mm 0.00 W/m2 SCT
19:34 -9.2 °C -17.1 °C 34733.6 hPa SSE 6 km/h 2.3 km/h 38 % 0 mm 0.00 W/m2 SCT
19:39 -9.3 °C -17.2 °C 34733.6 hPa SSE 6 km/h 3.1 km/h 38 % 0 mm 0.00 W/m2 SCT
19:43 -9.3 °C -17.2 °C 34737 hPa SSE 6 km/h 3.1 km/h 38 % 0 mm 0.00 W/m2 SCT
19:49 -9.3 °C -17.1 °C 34733.6 hPa SSE 6 km/h 3.4 km/h 39 % 0 mm 0.00 W/m2 SCT
19:54 -9.4 °C -17.3 °C 34733.6 hPa SSE 6 km/h 3.7 km/h 38 % 0 mm 0.00 W/m2 SCT
19:58 -9.4 °C -17.1 °C 34737 hPa SSE 6 km/h 4.7 km/h 39 % 0 mm 0.00 W/m2 SCT
Juneau County Weather
Compliments of Weather Underground - 3 mb